Time;durP1;ratioP1;P1;durP2;ratioP2;P2;SDS_P1;SDS_P2;PMS_P1;PMS_P2;Temp;Humidity;BMP_temperature;BMP_pressure;BME280_temperature;BME280_humidity;BME280_pressure;Samples;Min_cycle;Max_cycle;Signal;HPM_P1;HPM_P2
2023/02/18 00:01:22;;;;;;;7.63;2.13;;;7.20;82.10;;;;;;5073532;28;20036;-56
2023/02/18 00:03:49;;;;;;;10.30;2.67;;;7.10;82.60;;;;;;5074260;28;20029;-52
2023/02/18 00:06:21;;;;;;;15.55;2.50;;;7.10;82.80;;;;;;5067131;28;20033;-47
2023/02/18 00:08:48;;;;;;;12.00;3.33;;;7.10;82.70;;;;;;5049263;28;20052;-49
2023/02/18 00:11:15;;;;;;;8.05;1.85;;;7.10;83.00;;;;;;5064409;28;20743;-44
2023/02/18 00:13:41;;;;;;;14.00;2.40;;;7.10;83.20;;;;;;5079096;28;20067;-52
2023/02/18 00:16:12;;;;;;;15.35;3.15;;;7.10;83.30;;;;;;5068004;28;20445;-52
2023/02/18 00:18:38;;;;;;;13.25;2.60;;;7.10;83.80;;;;;;5049114;28;20032;-54
2023/02/18 00:21:05;;;;;;;13.15;3.15;;;7.10;84.00;;;;;;5070474;28;20037;-55
2023/02/18 00:23:31;;;;;;;10.80;3.05;;;7.10;84.40;;;;;;5087060;28;20035;-51
2023/02/18 00:26:05;;;;;;;8.70;1.60;;;7.10;84.90;;;;;;5051993;28;20489;-51
2023/02/18 00:28:31;;;;;;;12.60;2.20;;;7.10;85.60;;;;;;5049014;28;20044;-56
2023/02/18 00:30:56;;;;;;;9.48;2.10;;;7.10;85.80;;;;;;5056821;28;20493;-53
2023/02/18 00:33:22;;;;;;;8.57;2.30;;;7.10;86.10;;;;;;5086828;28;20503;-52
2023/02/18 00:35:47;;;;;;;12.23;2.10;;;7.10;86.50;;;;;;5072305;28;20028;-54
2023/02/18 00:38:13;;;;;;;16.00;2.38;;;7.10;86.50;;;;;;5069201;28;20036;-53
2023/02/18 00:40:39;;;;;;;10.77;2.58;;;7.10;86.70;;;;;;5071892;28;20493;-54
2023/02/18 00:43:05;;;;;;;14.02;2.25;;;7.10;86.90;;;;;;5072600;28;20036;-53
2023/02/18 00:45:30;;;;;;;9.95;1.85;;;7.20;86.70;;;;;;5085772;28;20551;-53
2023/02/18 00:47:56;;;;;;;14.95;2.90;;;7.10;87.20;;;;;;5068299;28;20086;-53
2023/02/18 00:50:21;;;;;;;12.70;2.22;;;7.10;87.70;;;;;;5082335;28;20481;-53
2023/02/18 00:52:47;;;;;;;13.82;2.60;;;7.10;88.30;;;;;;5068667;28;20432;-55
2023/02/18 00:55:12;;;;;;;12.73;3.28;;;7.10;88.30;;;;;;5085555;28;20758;-54
2023/02/18 00:57:38;;;;;;;13.68;2.75;;;7.10;88.10;;;;;;5050168;28;20040;-53
2023/02/18 01:00:05;;;;;;;13.00;3.20;;;7.10;88.30;;;;;;5045852;28;20041;-52
2023/02/18 01:02:30;;;;;;;14.05;2.65;;;7.10;88.10;;;;;;5086173;28;20040;-54
2023/02/18 01:04:56;;;;;;;13.75;2.40;;;7.00;88.50;;;;;;5066133;28;20079;-53
2023/02/18 01:07:22;;;;;;;6.60;2.25;;;7.00;89.80;;;;;;5079625;28;20040;-53
2023/02/18 01:09:47;;;;;;;15.18;2.17;;;7.00;90.00;;;;;;5068193;28;20110;-54
2023/02/18 01:12:12;;;;;;;17.50;2.72;;;7.00;90.10;;;;;;5084929;28;20043;-53
2023/02/18 01:14:38;;;;;;;15.57;2.13;;;7.00;89.90;;;;;;5066561;28;20081;-52
2023/02/18 01:17:04;;;;;;;12.77;2.60;;;6.90;90.10;;;;;;5085313;28;20066;-54
2023/02/18 01:19:29;;;;;;;14.02;2.20;;;6.90;90.40;;;;;;5068187;28;20086;-55
2023/02/18 01:21:54;;;;;;;13.52;2.83;;;6.80;90.70;;;;;;5085146;28;20035;-58
2023/02/18 01:24:20;;;;;;;11.18;2.50;;;6.70;90.90;;;;;;5067873;28;20051;-54
2023/02/18 01:26:45;;;;;;;15.73;3.05;;;6.70;91.00;;;;;;5084897;28;20076;-56
2023/02/18 01:29:11;;;;;;;10.30;2.08;;;6.60;91.20;;;;;;5087438;28;20399;-53
2023/02/18 01:31:36;;;;;;;14.90;2.55;;;6.60;91.60;;;;;;5071375;28;20085;-52
2023/02/18 01:34:02;;;;;;;15.50;3.03;;;6.50;92.00;;;;;;5067992;28;20089;-53
2023/02/18 01:36:28;;;;;;;11.00;2.38;;;6.50;92.80;;;;;;5079943;28;20032;-54
2023/02/18 01:38:53;;;;;;;15.10;2.55;;;6.40;92.90;;;;;;5087603;28;20123;-50
2023/02/18 01:41:19;;;;;;;12.25;2.30;;;6.40;93.30;;;;;;5054723;28;20749;-52
2023/02/18 01:43:45;;;;;;;10.30;2.20;;;6.40;93.60;;;;;;5071176;28;20024;-54
2023/02/18 01:46:19;;;;;;;16.10;2.70;;;6.40;94.10;;;;;;5085837;28;20100;-52
2023/02/18 01:48:53;;;;;;;10.10;3.13;;;6.40;94.00;;;;;;5088542;28;20515;-53
2023/02/18 01:51:21;;;;;;;17.70;2.70;;;6.40;94.30;;;;;;5058480;28;20028;-54
2023/02/18 01:54:00;;;;;;;7.63;2.67;;;6.40;94.60;;;;;;5069354;28;20032;-54
2023/02/18 01:56:31;;;;;;;17.80;2.88;;;6.40;94.70;;;;;;5059411;28;20085;-56
2023/02/18 01:59:01;;;;;;;15.40;3.10;;;6.40;94.30;;;;;;5057893;28;20504;-55
2023/02/18 02:01:27;;;;;;;13.02;2.38;;;6.40;94.40;;;;;;5068602;28;20032;-54
2023/02/18 02:03:53;;;;;;;12.13;2.88;;;6.40;94.30;;;;;;5068411;28;20040;-52
2023/02/18 02:06:21;;;;;;;11.13;2.20;;;6.40;94.30;;;;;;5061902;28;20048;-55
2023/02/18 02:08:49;;;;;;;13.38;2.42;;;6.40;94.60;;;;;;5069984;28;20068;-55
2023/02/18 02:11:50;;;;;;;9.70;2.55;;;6.30;94.90;;;;;;5067682;28;20040;-53
2023/02/18 02:14:27;;;;;;;10.60;2.70;;;6.30;95.20;;;;;;5040754;28;20074;-64
2023/02/18 02:17:16;;;;;;;14.93;3.15;;;6.30;94.90;;;;;;5063603;28;20067;-63
2023/02/18 02:20:17;;;;;;;12.70;2.17;;;6.30;94.90;;;;;;5064042;28;20035;-64
2023/02/18 02:23:12;;;;;;;13.70;3.28;;;6.30;94.60;;;;;;5066471;28;20032;-63
2023/02/18 02:26:11;;;;;;;11.95;2.38;;;6.30;94.70;;;;;;5032036;28;20040;-64
2023/02/18 02:28:55;;;;;;;12.93;2.50;;;6.30;94.80;;;;;;5056966;28;20219;-64
2023/02/18 02:31:38;;;;;;;7.85;1.92;;;6.20;94.90;;;;;;5055976;28;20552;-64
2023/02/18 02:34:22;;;;;;;14.18;3.08;;;6.20;95.00;;;;;;5061246;28;20506;-64
2023/02/18 02:37:04;;;;;;;11.88;3.35;;;6.20;95.00;;;;;;5063644;28;20217;-64
2023/02/18 02:40:02;;;;;;;9.85;2.53;;;6.20;95.10;;;;;;5061251;28;20786;-61
2023/02/18 02:42:45;;;;;;;11.20;2.53;;;6.10;95.70;;;;;;5070924;28;20396;-63
2023/02/18 02:45:48;;;;;;;7.97;2.33;;;6.10;95.70;;;;;;5069322;28;20028;-64
2023/02/18 02:48:31;;;;;;;12.75;2.00;;;6.00;96.30;;;;;;5062318;28;20048;-65
2023/02/18 02:51:24;;;;;;;20.67;2.55;;;6.00;96.50;;;;;;5061782;28;20036;-63
2023/02/18 02:53:50;;;;;;;14.80;2.40;;;6.00;96.80;;;;;;5066057;28;20373;-63
2023/02/18 02:56:18;;;;;;;8.32;2.20;;;6.00;96.90;;;;;;5071315;28;20035;-64
2023/02/18 02:58:49;;;;;;;11.13;2.35;;;6.00;96.80;;;;;;5076477;28;20155;-64
2023/02/18 03:01:35;;;;;;;13.85;2.38;;;6.00;96.80;;;;;;5069206;28;20031;-64
2023/02/18 03:04:21;;;;;;;15.93;2.10;;;6.10;96.80;;;;;;5062490;28;20064;-65
2023/02/18 03:07:10;;;;;;;10.90;2.05;;;6.10;96.60;;;;;;5068817;28;20037;-65
2023/02/18 03:09:35;;;;;;;8.35;3.42;;;6.10;96.50;;;;;;5083372;28;20054;-65
2023/02/18 03:12:23;;;;;;;9.27;2.50;;;6.10;96.20;;;;;;5077020;28;20032;-64
2023/02/18 03:15:11;;;;;;;11.30;2.05;;;6.10;96.10;;;;;;5068095;28;20037;-65
2023/02/18 03:17:44;;;;;;;16.23;2.92;;;6.10;96.40;;;;;;5062312;28;20048;-64
2023/02/18 03:20:25;;;;;;;11.13;2.30;;;6.10;96.40;;;;;;5062529;28;20044;-64
2023/02/18 03:22:53;;;;;;;7.22;1.73;;;6.20;96.10;;;;;;5064434;28;20031;-63
2023/02/18 03:25:21;;;;;;;20.60;2.65;;;6.20;95.90;;;;;;5065611;28;20511;-64
2023/02/18 03:27:53;;;;;;;11.25;2.30;;;6.20;95.50;;;;;;5070847;28;20430;-64
2023/02/18 03:30:29;;;;;;;14.68;2.95;;;6.20;95.40;;;;;;5073123;28;20040;-64
2023/02/18 03:32:58;;;;;;;15.13;2.53;;;6.10;95.50;;;;;;5069549;28;20101;-65
2023/02/18 03:35:25;;;;;;;9.10;2.40;;;6.10;95.60;;;;;;5080953;28;20024;-64
2023/02/18 03:37:59;;;;;;;13.27;2.22;;;6.10;95.90;;;;;;5071594;28;20032;-63
2023/02/18 03:40:27;;;;;;;10.40;2.10;;;6.00;96.30;;;;;;5062617;28;20036;-64
2023/02/18 03:42:52;;;;;;;12.27;2.30;;;6.00;96.20;;;;;;5079631;28;20043;-63
2023/02/18 03:45:18;;;;;;;10.73;2.40;;;6.10;96.20;;;;;;5076851;28;20040;-64
2023/02/18 03:47:44;;;;;;;8.43;2.15;;;6.10;96.30;;;;;;5074079;28;20663;-64
2023/02/18 03:50:09;;;;;;;8.93;1.75;;;6.10;95.90;;;;;;5055362;28;20055;-64
2023/02/18 03:52:35;;;;;;;10.95;1.83;;;6.10;95.70;;;;;;5071372;28;20043;-64
2023/02/18 03:55:05;;;;;;;11.32;2.47;;;6.10;95.50;;;;;;5069613;28;20036;-64
2023/02/18 03:57:30;;;;;;;16.10;2.67;;;6.10;95.30;;;;;;5071412;28;20041;-63
2023/02/18 03:59:56;;;;;;;4.68;1.38;;;6.10;95.00;;;;;;5065366;28;20055;-64
2023/02/18 04:02:21;;;;;;;14.90;2.50;;;6.10;94.60;;;;;;5071922;28;20028;-64
2023/02/18 04:04:47;;;;;;;12.70;1.98;;;6.10;94.60;;;;;;5077860;28;20070;-63
2023/02/18 04:07:12;;;;;;;14.73;1.88;;;6.10;94.60;;;;;;5061751;28;20832;-64
2023/02/18 04:09:38;;;;;;;12.77;2.72;;;6.10;94.70;;;;;;5065837;28;20112;-64
2023/02/18 04:12:04;;;;;;;10.50;2.25;;;6.10;94.40;;;;;;5072974;28;20061;-63
2023/02/18 04:14:29;;;;;;;12.25;1.98;;;6.10;94.50;;;;;;5084329;28;20412;-53
2023/02/18 04:16:54;;;;;;;8.93;2.13;;;6.10;94.40;;;;;;5067920;28;20115;-55
2023/02/18 04:19:20;;;;;;;9.35;1.92;;;6.00;94.30;;;;;;5084790;28;20050;-48
2023/02/18 04:21:45;;;;;;;9.30;1.92;;;6.00;94.40;;;;;;5087766;28;20024;-53
2023/02/18 04:24:11;;;;;;;12.68;2.03;;;6.00;94.40;;;;;;5048812;28;20064;-51
2023/02/18 04:26:36;;;;;;;8.98;1.65;;;5.90;94.50;;;;;;5072608;28;20190;-47
2023/02/18 04:29:02;;;;;;;7.18;1.83;;;5.90;94.70;;;;;;5085443;28;20039;-49
2023/02/18 04:31:28;;;;;;;6.90;1.60;;;5.90;94.50;;;;;;5067777;28;20036;-48
2023/02/18 04:33:53;;;;;;;12.05;1.95;;;5.80;94.60;;;;;;5070094;28;20461;-51
2023/02/18 04:36:18;;;;;;;10.90;2.22;;;5.80;94.70;;;;;;5076115;28;20158;-51
2023/02/18 04:38:44;;;;;;;11.77;2.10;;;5.80;94.70;;;;;;5072014;28;20039;-50
2023/02/18 04:41:11;;;;;;;10.90;2.03;;;5.80;94.60;;;;;;5079685;28;20044;-49
2023/02/18 04:43:37;;;;;;;10.65;1.60;;;5.80;94.70;;;;;;5071011;28;20025;-51
2023/02/18 04:46:03;;;;;;;8.77;1.90;;;5.80;94.60;;;;;;5088537;28;20035;-50
2023/02/18 04:48:28;;;;;;;8.38;1.80;;;5.70;94.70;;;;;;5071034;28;20024;-52
2023/02/18 04:50:54;;;;;;;12.27;2.28;;;5.80;94.60;;;;;;5087906;28;20059;-48
2023/02/18 04:53:19;;;;;;;6.75;1.83;;;5.70;94.80;;;;;;5073172;28;20036;-50
2023/02/18 04:55:50;;;;;;;6.22;1.33;;;5.70;94.80;;;;;;5088853;28;20119;-52
2023/02/18 04:58:16;;;;;;;7.95;1.67;;;5.70;94.70;;;;;;5090885;28;20016;-48
2023/02/18 05:00:41;;;;;;;9.60;1.45;;;5.70;94.60;;;;;;5067817;28;20178;-52
2023/02/18 05:03:07;;;;;;;7.95;1.60;;;5.70;94.60;;;;;;5087460;28;20032;-49
2023/02/18 05:05:32;;;;;;;8.32;1.77;;;5.70;94.70;;;;;;5064903;28;20431;-49
2023/02/18 05:07:58;;;;;;;8.70;1.98;;;5.70;94.90;;;;;;5072596;28;20113;-52
2023/02/18 05:10:23;;;;;;;12.73;2.05;;;5.70;94.70;;;;;;5070491;28;20138;-53
2023/02/18 05:12:48;;;;;;;10.68;1.80;;;5.60;94.80;;;;;;5052218;28;20092;-51
2023/02/18 05:15:14;;;;;;;10.93;1.75;;;5.60;95.10;;;;;;5072980;28;20038;-46
2023/02/18 05:17:39;;;;;;;8.23;1.55;;;5.60;95.20;;;;;;5062036;28;20087;-49
2023/02/18 05:20:06;;;;;;;21.85;2.75;;;5.60;95.40;;;;;;5079362;28;20036;-52
2023/02/18 05:22:31;;;;;;;9.27;1.90;;;5.60;95.40;;;;;;5066752;28;20103;-49
2023/02/18 05:24:57;;;;;;;9.13;1.83;;;5.60;95.40;;;;;;5067646;28;20119;-52
2023/02/18 05:27:22;;;;;;;6.45;1.67;;;5.60;95.20;;;;;;5072410;28;20384;-51
2023/02/18 05:29:48;;;;;;;6.80;1.63;;;5.60;95.30;;;;;;5090206;28;20111;-49
2023/02/18 05:32:13;;;;;;;7.80;1.60;;;5.60;95.10;;;;;;5055043;28;20500;-49
2023/02/18 05:34:39;;;;;;;8.80;1.63;;;5.60;94.90;;;;;;5088738;28;20032;-53
2023/02/18 05:37:04;;;;;;;9.68;1.70;;;5.70;94.90;;;;;;5068851;28;20031;-49
2023/02/18 05:39:30;;;;;;;9.10;1.80;;;5.70;94.70;;;;;;5079822;28;20028;-51
2023/02/18 05:41:55;;;;;;;6.95;1.48;;;5.70;94.20;;;;;;5070230;28;20112;-49
2023/02/18 05:44:30;;;;;;;7.32;1.77;;;5.70;93.90;;;;;;5066675;28;20103;-48
2023/02/18 05:47:01;;;;;;;7.47;1.40;;;5.70;93.80;;;;;;5049703;28;20043;-54
2023/02/18 05:49:28;;;;;;;5.38;1.50;;;5.70;93.90;;;;;;5069447;28;20060;-54
2023/02/18 05:51:53;;;;;;;9.25;1.50;;;5.70;93.40;;;;;;5069988;28;20025;-50
2023/02/18 05:54:19;;;;;;;7.80;2.30;;;5.80;93.30;;;;;;5086729;28;20030;-49
2023/02/18 05:56:44;;;;;;;6.60;1.17;;;5.80;92.90;;;;;;5069649;28;20036;-48
2023/02/18 05:59:10;;;;;;;7.75;1.73;;;5.80;92.80;;;;;;5086494;28;20031;-49
2023/02/18 06:01:36;;;;;;;4.68;1.52;;;5.90;92.40;;;;;;5069473;28;20082;-53
2023/02/18 06:04:01;;;;;;;5.03;1.85;;;5.90;92.10;;;;;;5071291;28;20750;-53
2023/02/18 06:06:27;;;;;;;11.73;1.63;;;6.00;92.10;;;;;;5059511;28;20193;-47
2023/02/18 06:08:52;;;;;;;5.47;1.20;;;6.00;92.00;;;;;;5068986;28;20049;-53
2023/02/18 06:11:18;;;;;;;5.90;1.23;;;6.00;91.50;;;;;;5088514;28;20086;-53
2023/02/18 06:13:43;;;;;;;7.03;1.20;;;6.00;91.40;;;;;;5048708;28;20035;-53
2023/02/18 06:16:09;;;;;;;4.97;1.02;;;6.10;91.10;;;;;;5066536;28;20045;-71
2023/02/18 06:18:34;;;;;;;7.45;1.45;;;6.10;91.00;;;;;;5088642;28;20036;-71
2023/02/18 06:21:00;;;;;;;3.95;1.20;;;6.10;90.10;;;;;;5067614;28;20085;-69
2023/02/18 06:23:25;;;;;;;6.97;1.40;;;6.20;90.30;;;;;;5069108;28;20077;-71
2023/02/18 06:25:51;;;;;;;11.68;1.65;;;6.20;90.20;;;;;;5086396;28;20028;-69
2023/02/18 06:28:17;;;;;;;9.85;1.60;;;6.20;90.40;;;;;;5089151;28;20067;-71
2023/02/18 06:30:44;;;;;;;8.77;1.88;;;6.20;89.80;;;;;;5067338;28;20383;-71
2023/02/18 06:33:09;;;;;;;6.90;2.10;;;6.30;90.10;;;;;;5068837;28;20580;-71
2023/02/18 06:35:35;;;;;;;9.05;1.77;;;6.30;89.00;;;;;;5086245;28;20119;-71
2023/02/18 06:38:00;;;;;;;6.22;1.13;;;6.30;88.30;;;;;;5089043;28;20034;-71
2023/02/18 06:40:26;;;;;;;7.38;1.85;;;6.40;88.20;;;;;;5067263;28;22402;-71
2023/02/18 06:42:51;;;;;;;4.88;1.55;;;6.40;87.90;;;;;;5068701;28;20024;-70
2023/02/18 06:45:17;;;;;;;8.20;1.88;;;6.40;84.80;;;;;;5069295;28;20024;-71
2023/02/18 06:47:43;;;;;;;8.20;1.63;;;6.50;83.60;;;;;;5063307;28;20387;-71
2023/02/18 06:50:09;;;;;;;4.65;1.30;;;6.50;85.60;;;;;;5070606;28;20564;-71
2023/02/18 06:52:36;;;;;;;10.02;1.83;;;6.60;84.90;;;;;;5051191;28;20308;-71
2023/02/18 06:55:06;;;;;;;6.15;0.90;;;6.60;84.10;;;;;;5055450;28;20028;-69
2023/02/18 06:57:31;;;;;;;8.07;1.77;;;6.70;84.40;;;;;;5062915;28;20033;-69
2023/02/18 06:59:57;;;;;;;7.90;1.17;;;6.70;84.20;;;;;;5072369;28;20056;-71
2023/02/18 07:02:22;;;;;;;5.97;1.10;;;6.70;84.20;;;;;;5066059;28;20568;-71
2023/02/18 07:04:48;;;;;;;5.63;1.52;;;6.70;84.30;;;;;;5057071;28;20661;-70
2023/02/18 07:07:14;;;;;;;5.28;1.10;;;6.80;83.60;;;;;;5070676;28;20029;-70
2023/02/18 07:09:39;;;;;;;6.55;0.90;;;6.80;83.90;;;;;;5045579;28;20112;-70
2023/02/18 07:12:05;;;;;;;5.32;1.15;;;6.80;84.30;;;;;;5083708;28;20412;-71
2023/02/18 07:14:30;;;;;;;3.95;1.20;;;6.80;84.40;;;;;;5086814;28;20379;-70
2023/02/18 07:16:57;;;;;;;4.93;1.10;;;6.80;83.60;;;;;;5065659;28;20025;-70
2023/02/18 07:19:22;;;;;;;6.97;1.08;;;6.90;84.20;;;;;;5067577;28;20035;-71
2023/02/18 07:21:47;;;;;;;4.43;1.10;;;6.90;84.90;;;;;;5082822;28;20029;-68
2023/02/18 07:24:13;;;;;;;9.38;1.63;;;6.90;84.50;;;;;;5085137;28;20044;-68
2023/02/18 07:26:38;;;;;;;3.25;0.77;;;6.90;83.90;;;;;;5067678;28;20107;-67
2023/02/18 07:29:04;;;;;;;6.93;1.52;;;7.00;83.90;;;;;;5065927;28;20025;-72
2023/02/18 07:31:29;;;;;;;4.72;1.30;;;7.00;83.50;;;;;;5086750;28;20110;-71
2023/02/18 07:33:55;;;;;;;4.70;1.40;;;7.10;82.90;;;;;;5048644;28;20032;-68
2023/02/18 07:36:20;;;;;;;7.40;1.33;;;7.10;83.80;;;;;;5066590;28;20424;-69
2023/02/18 07:38:46;;;;;;;4.30;1.45;;;7.20;82.30;;;;;;5068676;28;20032;-70
2023/02/18 07:41:18;;;;;;;4.88;1.20;;;7.20;81.60;;;;;;5086330;28;20444;-70
2023/02/18 07:43:44;;;;;;;6.13;1.20;;;7.30;82.90;;;;;;5049713;28;20025;-70
2023/02/18 07:46:09;;;;;;;3.88;1.00;;;7.20;81.60;;;;;;5066407;28;20683;-70
2023/02/18 07:48:35;;;;;;;5.20;1.25;;;7.30;83.00;;;;;;5070033;28;20039;-70
2023/02/18 07:51:05;;;;;;;4.05;1.00;;;7.30;82.40;;;;;;5086456;28;20027;-70
2023/02/18 07:53:31;;;;;;;6.63;1.42;;;7.40;81.50;;;;;;5058875;28;20086;-70
2023/02/18 07:56:00;;;;;;;3.85;1.00;;;7.40;80.90;;;;;;5086486;28;20025;-69
2023/02/18 07:58:29;;;;;;;4.05;1.02;;;7.50;81.30;;;;;;5052385;28;20021;-71
2023/02/18 08:00:55;;;;;;;4.10;1.05;;;7.50;81.50;;;;;;5066693;28;20033;-70
2023/02/18 08:03:24;;;;;;;5.65;1.88;;;7.60;80.80;;;;;;5072075;28;20028;-71
2023/02/18 08:05:50;;;;;;;5.75;0.95;;;7.70;78.30;;;;;;5071300;28;20024;-69
2023/02/18 08:08:22;;;;;;;6.50;1.35;;;7.70;79.10;;;;;;5069210;28;20079;-70
2023/02/18 08:10:48;;;;;;;6.57;1.13;;;7.80;79.10;;;;;;5047004;28;20036;-69
2023/02/18 08:13:13;;;;;;;3.60;0.90;;;7.80;78.00;;;;;;5069378;28;20037;-70
2023/02/18 08:15:39;;;;;;;2.00;1.00;;;7.80;78.00;;;;;;5090340;28;20044;-69
2023/02/18 08:18:06;;;;;;;4.65;1.38;;;7.90;77.30;;;;;;5055228;28;20037;-70
2023/02/18 08:20:36;;;;;;;2.90;0.85;;;7.90;77.50;;;;;;5070004;28;20031;-70
2023/02/18 08:23:02;;;;;;;3.72;1.13;;;8.00;76.60;;;;;;5075115;28;20029;-67
2023/02/18 08:25:27;;;;;;;6.78;1.25;;;8.00;76.20;;;;;;5075573;28;20058;-70
2023/02/18 08:27:53;;;;;;;2.30;0.95;;;8.00;76.10;;;;;;5072288;28;20024;-57
2023/02/18 08:30:18;;;;;;;3.13;1.08;;;8.10;76.60;;;;;;5071117;28;20092;-64
2023/02/18 08:32:44;;;;;;;4.35;1.08;;;8.20;77.10;;;;;;5073696;28;20029;-65
2023/02/18 08:35:10;;;;;;;4.88;1.02;;;8.20;76.40;;;;;;5074110;28;20566;-64
2023/02/18 08:37:36;;;;;;;5.80;1.73;;;8.20;77.70;;;;;;5078283;28;20043;-65
2023/02/18 08:40:02;;;;;;;4.50;0.93;;;8.30;76.60;;;;;;5063687;28;20469;-63
2023/02/18 08:42:28;;;;;;;4.32;1.20;;;8.40;77.50;;;;;;5064681;28;20033;-64
2023/02/18 08:44:53;;;;;;;5.45;1.08;;;8.40;76.80;;;;;;5073939;28;20110;-63
2023/02/18 08:47:19;;;;;;;5.65;1.25;;;8.40;77.50;;;;;;5070757;28;20125;-65
2023/02/18 08:49:45;;;;;;;3.15;1.17;;;8.30;77.60;;;;;;5071405;28;20036;-64
2023/02/18 08:52:10;;;;;;;5.65;1.42;;;8.30;78.60;;;;;;5070358;28;20373;-64
2023/02/18 08:54:36;;;;;;;2.47;1.05;;;8.40;79.40;;;;;;5076552;28;20047;-64
2023/02/18 08:57:01;;;;;;;6.30;1.48;;;8.40;79.70;;;;;;5068899;28;20384;-64
2023/02/18 08:59:27;;;;;;;3.97;1.17;;;8.40;79.60;;;;;;5073094;28;20566;-63
2023/02/18 09:01:52;;;;;;;3.42;1.00;;;8.40;80.40;;;;;;5089072;28;20081;-63
2023/02/18 09:04:19;;;;;;;1.48;0.85;;;8.40;81.20;;;;;;5067905;28;20060;-64
2023/02/18 09:06:49;;;;;;;2.25;0.70;;;8.40;81.80;;;;;;5054099;28;20020;-64
2023/02/18 09:09:15;;;;;;;4.32;0.90;;;8.40;83.10;;;;;;5052334;28;20032;-64
2023/02/18 09:11:41;;;;;;;7.35;1.63;;;8.40;83.70;;;;;;5088551;28;20039;-64
2023/02/18 09:14:07;;;;;;;2.15;1.13;;;8.30;85.70;;;;;;5053474;28;20713;-64
2023/02/18 09:16:32;;;;;;;4.32;0.90;;;8.30;87.50;;;;;;5068454;28;20037;-64
2023/02/18 09:18:58;;;;;;;2.97;0.85;;;8.20;88.40;;;;;;5073313;28;20066;-64
2023/02/18 09:21:23;;;;;;;4.22;1.02;;;8.20;90.00;;;;;;5087552;28;20024;-64
2023/02/18 09:23:49;;;;;;;4.63;1.05;;;8.20;90.80;;;;;;5055802;28;20068;-65
2023/02/18 09:26:17;;;;;;;3.67;1.00;;;8.20;91.20;;;;;;5047232;28;20036;-64
2023/02/18 09:28:43;;;;;;;6.65;1.13;;;8.30;91.50;;;;;;5068469;28;20056;-64
2023/02/18 09:31:12;;;;;;;2.70;0.90;;;8.30;92.60;;;;;;5074885;28;20751;-63
2023/02/18 09:33:39;;;;;;;3.10;1.20;;;8.20;93.70;;;;;;5061366;28;20056;-65
2023/02/18 09:36:05;;;;;;;4.82;1.08;;;8.20;93.50;;;;;;5069269;28;20115;-64
2023/02/18 09:38:30;;;;;;;1.65;0.98;;;8.20;94.50;;;;;;5080579;28;20107;-64
2023/02/18 09:40:58;;;;;;;4.15;2.10;;;8.20;95.20;;;;;;5065956;28;20519;-64
2023/02/18 09:43:35;;;;;;;3.50;1.48;;;8.30;95.40;;;;;;5059575;28;20536;-64
2023/02/18 09:46:03;;;;;;;4.85;1.15;;;8.30;96.00;;;;;;5067080;28;20035;-64
2023/02/18 09:48:32;;;;;;;4.07;1.13;;;8.30;96.40;;;;;;5073022;28;20028;-64
2023/02/18 09:50:59;;;;;;;6.38;1.83;;;8.30;96.80;;;;;;5055596;28;20037;-65
2023/02/18 09:53:25;;;;;;;4.07;1.48;;;8.30;97.80;;;;;;5087662;28;20024;-64
2023/02/18 09:55:53;;;;;;;4.75;1.05;;;8.30;97.80;;;;;;5054515;28;20032;-63
2023/02/18 09:58:32;;;;;;;3.35;0.95;;;8.40;98.10;;;;;;5088565;28;20027;-64
2023/02/18 10:01:03;;;;;;;2.38;0.95;;;8.40;98.50;;;;;;5045888;28;20029;-63
2023/02/18 10:03:29;;;;;;;5.47;1.50;;;8.40;98.40;;;;;;5067995;28;20029;-65
2023/02/18 10:06:24;;;;;;;3.95;1.38;;;8.40;99.90;;;;;;5041113;28;20039;-64
2023/02/18 10:08:52;;;;;;;2.28;1.10;;;8.40;99.50;;;;;;5065422;28;20053;-63
2023/02/18 10:11:27;;;;;;;2.70;1.20;;;8.50;99.90;;;;;;5078576;28;20031;-64
2023/02/18 10:13:53;;;;;;;7.63;1.23;;;8.50;99.90;;;;;;5050606;28;20113;-64
2023/02/18 10:16:21;;;;;;;9.57;1.90;;;8.60;99.80;;;;;;5088899;28;20077;-53
2023/02/18 10:18:50;;;;;;;6.85;2.00;;;8.70;99.90;;;;;;5066573;28;20458;-59
2023/02/18 10:21:20;;;;;;;6.72;1.90;;;8.70;99.90;;;;;;5068073;28;20037;-59
2023/02/18 10:23:58;;;;;;;6.38;1.75;;;8.70;99.90;;;;;;5048525;28;20037;-59
2023/02/18 10:26:24;;;;;;;2.92;1.65;;;8.70;99.90;;;;;;5088152;28;20387;-59
2023/02/18 10:28:51;;;;;;;5.65;2.60;;;8.70;99.90;;;;;;5066444;28;20029;-59
2023/02/18 10:31:28;;;;;;;5.68;2.10;;;8.70;99.90;;;;;;5068154;28;20036;-59
2023/02/18 10:34:26;;;;;;;5.10;2.13;;;8.70;99.90;;;;;;5049680;28;20041;-59
2023/02/18 10:37:01;;;;;;;5.43;2.10;;;8.70;99.90;;;;;;5087286;28;20103;-58
2023/02/18 10:39:53;;;;;;;10.88;4.15;;;8.60;99.90;;;;;;5065288;28;20032;-59
2023/02/18 10:42:56;;;;;;;7.78;2.70;;;8.60;99.90;;;;;;5048210;28;20060;-59
2023/02/18 10:45:44;;;;;;;24.20;8.27;;;8.50;99.90;;;;;;5071395;28;20020;-58
2023/02/18 10:48:36;;;;;;;40.88;22.65;;;8.40;99.90;;;;;;5047811;28;20061;-59
2023/02/18 10:51:19;;;;;;;16.90;11.43;;;8.40;99.90;;;;;;5057293;28;20447;-58
2023/02/18 10:53:47;;;;;;;13.63;6.00;;;8.40;99.90;;;;;;5067704;28;20178;-59
2023/02/18 10:56:39;;;;;;;34.67;18.00;;;8.30;99.90;;;;;;5085674;28;20502;-59
2023/02/18 10:59:24;;;;;;;130.25;59.47;;;8.20;99.90;;;;;;5087520;28;20314;-59
2023/02/18 11:02:13;;;;;;;45.22;23.33;;;8.00;99.90;;;;;;5061818;28;20020;-59
2023/02/18 11:04:41;;;;;;;41.00;22.45;;;7.90;99.90;;;;;;5051900;28;20037;-58
2023/02/18 11:07:13;;;;;;;38.97;24.23;;;7.90;99.90;;;;;;5075695;28;20082;-59
2023/02/18 11:09:47;;;;;;;16.15;11.07;;;7.80;99.90;;;;;;5087515;28;20036;-59
2023/02/18 11:12:21;;;;;;;12.43;7.45;;;7.80;99.90;;;;;;5067970;28;20028;-59
2023/02/18 11:15:02;;;;;;;10.07;6.97;;;7.80;99.90;;;;;;5047422;28;20029;-58
2023/02/18 11:17:31;;;;;;;8.52;4.32;;;7.80;99.90;;;;;;5058868;28;20185;-59
2023/02/18 11:20:00;;;;;;;9.10;3.13;;;7.80;99.90;;;;;;5087057;28;20038;-58
2023/02/18 11:22:38;;;;;;;8.80;2.83;;;7.80;99.90;;;;;;5051880;28;20100;-59
2023/02/18 11:25:22;;;;;;;3.60;2.10;;;7.80;99.90;;;;;;5047182;28;20029;-59
2023/02/18 11:27:53;;;;;;;5.32;2.67;;;7.80;99.90;;;;;;5061481;28;20033;-59
2023/02/18 11:30:29;;;;;;;5.53;3.22;;;7.90;99.90;;;;;;5047334;28;20443;-59
2023/02/18 11:32:59;;;;;;;47.50;23.08;;;7.90;99.90;;;;;;5062523;28;20564;-60
2023/02/18 11:35:27;;;;;;;75.90;37.60;;;7.90;99.90;;;;;;5086951;28;20484;-60
2023/02/18 11:37:56;;;;;;;47.78;25.02;;;7.80;99.90;;;;;;5049061;28;20027;-60
2023/02/18 11:40:33;;;;;;;43.00;24.40;;;7.90;99.90;;;;;;5060927;28;20024;-59
2023/02/18 11:43:06;;;;;;;122.53;67.03;;;7.90;99.90;;;;;;5076095;28;20019;-59
2023/02/18 11:45:33;;;;;;;55.78;32.08;;;7.90;99.90;;;;;;5067321;28;20129;-59
2023/02/18 11:48:00;;;;;;;29.70;18.95;;;7.80;99.90;;;;;;5072589;28;20095;-61
2023/02/18 11:50:30;;;;;;;20.42;13.88;;;7.80;99.90;;;;;;5091039;28;20535;-60
2023/02/18 11:52:57;;;;;;;14.95;7.55;;;7.80;99.90;;;;;;5068293;28;20048;-61
2023/02/18 11:55:29;;;;;;;9.13;5.18;;;7.80;99.90;;;;;;5090842;28;20116;-60
2023/02/18 11:58:01;;;;;;;5.93;3.80;;;7.80;99.90;;;;;;5072727;28;20032;-61
2023/02/18 12:00:48;;;;;;;4.80;2.75;;;7.80;99.90;;;;;;5070388;28;20077;-60
2023/02/18 12:03:34;;;;;;;4.72;2.47;;;7.80;99.90;;;;;;5054736;28;20060;-61
2023/02/18 12:06:04;;;;;;;4.65;2.55;;;7.80;99.90;;;;;;5070176;28;20506;-60
2023/02/18 12:08:35;;;;;;;4.35;2.10;;;7.80;99.90;;;;;;5064892;28;20060;-61
2023/02/18 12:11:09;;;;;;;4.55;3.55;;;7.80;99.90;;;;;;5050263;28;20060;-60
2023/02/18 12:13:52;;;;;;;9.18;3.75;;;7.70;99.90;;;;;;5066058;28;20519;-60
2023/02/18 12:16:37;;;;;;;17.50;11.10;;;7.80;99.90;;;;;;5050783;28;20660;-60
2023/02/18 12:19:54;;;;;;;10.38;5.72;;;7.70;99.90;;;;;;5050472;28;20025;-60
2023/02/18 12:23:00;;;;;;;25.43;13.07;;;7.70;99.90;;;;;;5062103;28;20558;-59
2023/02/18 12:25:42;;;;;;;11.07;6.25;;;7.70;99.90;;;;;;5050622;28;20477;-61
2023/02/18 12:28:27;;;;;;;8.95;5.05;;;7.80;99.90;;;;;;5062177;28;20594;-60
2023/02/18 12:31:11;;;;;;;8.07;5.85;;;7.80;99.90;;;;;;5050317;28;20039;-59
2023/02/18 12:33:45;;;;;;;3.35;2.50;;;7.90;99.90;;;;;;5073503;28;20032;-60
2023/02/18 12:36:35;;;;;;;3.78;2.00;;;7.80;99.90;;;;;;5090004;28;20068;-60
2023/02/18 12:39:08;;;;;;;8.48;4.55;;;7.90;99.90;;;;;;5090484;28;20107;-60
2023/02/18 12:41:49;;;;;;;2.88;2.50;;;7.90;99.90;;;;;;5049143;28;20047;-60
2023/02/18 12:44:35;;;;;;;3.58;1.80;;;7.90;99.90;;;;;;5090140;28;20662;-60
2023/02/18 12:47:12;;;;;;;3.67;1.90;;;7.80;99.90;;;;;;5056204;28;20028;-60
2023/02/18 12:49:57;;;;;;;3.75;2.15;;;7.90;99.90;;;;;;5090074;28;20032;-60
2023/02/18 12:52:49;;;;;;;2.13;1.50;;;8.00;99.90;;;;;;5062466;28;20024;-61
2023/02/18 12:55:25;;;;;;;4.38;1.90;;;8.00;99.90;;;;;;5049877;28;20033;-61
2023/02/18 12:57:59;;;;;;;3.47;1.80;;;8.00;99.90;;;;;;5070173;28;20036;-60
2023/02/18 13:00:36;;;;;;;2.03;1.52;;;8.10;99.90;;;;;;5048734;28;20443;-60
2023/02/18 13:03:23;;;;;;;4.13;1.63;;;8.10;99.90;;;;;;5060433;28;20028;-60
2023/02/18 13:06:03;;;;;;;4.60;2.92;;;8.20;99.90;;;;;;5081932;28;20028;-60
2023/02/18 13:09:06;;;;;;;6.57;2.90;;;8.20;99.90;;;;;;5064726;28;20044;-60
2023/02/18 13:11:36;;;;;;;3.78;2.08;;;8.30;99.90;;;;;;5046054;28;20168;-60